HR and Training

CourseMonster is staffed with experts to provide you best training in HR and training. We help organizations improve their profitability through the performance of people.

Thinking about Onsite?

If you need training for 3 or more people, you should ask us about onsite training. Putting aside the obvious location benefit, content can be customised to better meet your business objectives and more can be covered than in a public classroom. It's a cost effective option.

Submit an enquiry from any page on this site, and let us know you are interested in the requirements box, or simply mention it when we contact you.

ITILv3, RESILIA, PRINCE2, PRINCE2 Agile, AgileSHIFT, MSP, M_o_R, P3M3, P3O, MoP, MoV courses on this page are offered by QA Affiliate of AXELOS Limited. ITIL, RESILIA, PRINCE2, PRINCE2 Agile, AgileSHIFT, MSP, M_o_R, P3M3, P3O,MoP, MoV are registered trademarks of AXELOS Limited. All rights reserved.

Upcoming Dates

  • GREEN This class is Guaranteed To Run.
  • SPVC - Self-Paced Virtual Class.
  • Click a Date to Enroll.
Course Location Days Cost Date
Confident Recruitment and Selection Interviewing Skills London2 1099 £1099 2019-12-03
Appraisals and Feedback Birmingham2 931 £931 2019-12-05
MSP Practitioner Upgrade Exeter5 3499 £3499 2019-12-05
MSP Practitioner Upgrade Bracknell5 3499 £3499 2019-12-05
MSP Practitioner Upgrade Chorley5 3499 £3499 2019-12-05
MSP Practitioner Upgrade Bromley5 3499 £3499 2019-12-05
MSP Practitioner Upgrade Chester5 3499 £3499 2019-12-05
Appraisals and Feedback Bristol2 931 £931 2019-12-05
MSP Practitioner Upgrade Stoke on Trent5 3499 £3499 2019-12-05
MSP Practitioner Upgrade Carlisle5 3499 £3499 2019-12-05
MSP Practitioner Upgrade Warwick5 3499 £3499 2019-12-05
MSP Practitioner Upgrade Hinckley5 3499 £3499 2019-12-05
MSP Practitioner Upgrade London5 3499 £3499 2019-12-05
MSP Practitioner Upgrade Wakefield5 3499 £3499 2019-12-05
MSP Practitioner Upgrade Burton upon Trent5 3499 £3499 2019-12-05
MSP Practitioner Upgrade Chelmsford5 3499 £3499 2019-12-05
Working with Emotional Intelligence Edinburgh2 1100 £1100 2019-12-05
Appraisals and Feedback Exeter2 931 £931 2019-12-05
MSP Practitioner Upgrade Wolverhampton5 3499 £3499 2019-12-05
MSP Practitioner Upgrade Watford5 3499 £3499 2019-12-05
MSP Practitioner Upgrade Bolton5 3499 £3499 2019-12-05
MSP Practitioner Upgrade Corby5 3499 £3499 2019-12-05
MSP Practitioner Upgrade Ipswich5 3499 £3499 2019-12-05
Appraisals and Feedback Edinburgh2 931 £931 2019-12-05
MSP Practitioner Upgrade Wrexham5 3499 £3499 2019-12-05
MSP Practitioner Upgrade Plymouth5 3499 £3499 2019-12-05
MSP Practitioner Upgrade Cirencester5 3499 £3499 2019-12-05
MSP Practitioner Upgrade Bath5 3499 £3499 2019-12-05
MSP Practitioner Upgrade Chichester5 3499 £3499 2019-12-05
MSP Practitioner Upgrade Northampton5 3499 £3499 2019-12-05
MSP Practitioner Upgrade Swindon5 3499 £3499 2019-12-05
Working with Emotional Intelligence Bristol2 1100 £1100 2019-12-05
MSP Practitioner Upgrade Leeds5 3499 £3499 2019-12-05
Working with Emotional Intelligence Birmingham2 1100 £1100 2019-12-05
MSP Practitioner Upgrade Guildford5 3499 £3499 2019-12-05
MSP Practitioner Upgrade Canterbury5 3499 £3499 2019-12-05
MSP Practitioner Upgrade Bournemouth5 3499 £3499 2019-12-05
MSP Practitioner Upgrade Teesside5 3499 £3499 2019-12-05
MSP Practitioner Upgrade Swansea5 3499 £3499 2019-12-05
MSP Practitioner Upgrade Leicester5 3499 £3499 2019-12-05
MSP Practitioner Upgrade Poole5 3499 £3499 2019-12-05
MSP Practitioner Upgrade Buxton5 3499 £3499 2019-12-05
MSP Practitioner Upgrade Oxford5 3499 £3499 2019-12-05
MSP Practitioner Upgrade High Wycombe5 3499 £3499 2019-12-05
MSP Practitioner Upgrade Crewe5 3499 £3499 2019-12-05
MSP Practitioner Upgrade Inverness5 3499 £3499 2019-12-05
Recruitment and Selection Exeter1 399 £399 2019-12-06
Recruitment and Selection Bristol1 399 £399 2019-12-06
Mental Health Awareness Training Day Bristol1 495 £495 2019-12-06
Recruitment and Selection Birmingham1 399 £399 2019-12-06
Recruitment and Selection Edinburgh1 399 £399 2019-12-06
Mental Health Awareness Training Day Edinburgh1 495 £495 2019-12-06
Mental Health Awareness Training Day Birmingham1 495 £495 2019-12-06
An Introduction to Human Resources London2 1099 £1099 2019-12-09
MSP Practitioner Upgrade London5 3499 £3499 2019-12-12
MSP Practitioner Upgrade Virtual5 3499 £3499 2019-12-12
MSP Practitioner Upgrade Manchester5 3499 £3499 2019-12-12
Train the Workplace Trainer London2 1099 £1099 2019-12-16
MSP Practitioner Upgrade London5 3499 £3499 2019-12-19
MSP Practitioner Upgrade Nottingham5 3499 £3499 2019-12-19
Train the Workplace Trainer London2 1099 £1099 2020-01-13
Confident Recruitment and Selection Interviewing Skills London2 1099 £1099 2020-01-14
Train the Trainer Advanced London2 1099 £1099 2020-01-27
Shaping the next generation of Cyber talent Manchester1 750 £750 2020-01-31
Train the Trainer Essentials London3 1599 £1599 2020-02-05
Conducting Successful Appraisals and Reviews London1 649 £649 2020-02-14
Talent Management and Succession Planning London1 649 £649 2020-02-26
Train the Workplace Trainer London2 1099 £1099 2020-03-10
An Introduction to Human Resources London2 1099 £1099 2020-03-16
Confident Recruitment and Selection Interviewing Skills London2 1099 £1099 2020-03-19
Train the Trainer Master Trainer Programme London2 1599 £1599 2020-03-30
Train the Trainer Advanced London2 1099 £1099 2020-04-27
Confident Recruitment and Selection Interviewing Skills London2 1099 £1099 2020-04-30
Train the Trainer Essentials London3 1599 £1599 2020-05-05